createdAt,value
2022-07-25T00:01:42.504Z,22.49
2022-07-25T00:04:09.924Z,22.54
2022-07-25T00:06:39.461Z,22.59
2022-07-25T00:09:05.936Z,22.56
2022-07-25T00:11:32.472Z,22.48
2022-07-25T00:13:59.358Z,22.49
2022-07-25T00:16:26.201Z,22.51
2022-07-25T00:18:52.670Z,22.52
2022-07-25T00:21:19.070Z,22.52
2022-07-25T00:23:45.612Z,22.50
2022-07-25T00:26:12.093Z,22.47
2022-07-25T00:28:38.514Z,22.41
2022-07-25T00:31:05.139Z,22.43
2022-07-25T00:33:31.638Z,22.40
2022-07-25T00:35:58.402Z,22.37
2022-07-25T00:38:24.846Z,22.30
2022-07-25T00:40:54.567Z,22.28
2022-07-25T00:43:22.520Z,22.14
2022-07-25T00:45:49.329Z,22.15
2022-07-25T00:48:15.759Z,22.10
2022-07-25T00:50:42.895Z,22.10
2022-07-25T00:53:10.795Z,22.10
2022-07-25T00:55:37.459Z,22.06
2022-07-25T00:58:04.164Z,22.01
2022-07-25T01:00:30.774Z,21.93
2022-07-25T01:02:57.465Z,21.87
2022-07-25T01:05:24.068Z,21.71
2022-07-25T01:07:52.039Z,21.74
2022-07-25T01:10:18.721Z,21.67
2022-07-25T01:12:51.648Z,21.59
2022-07-25T01:15:19.742Z,21.50
2022-07-25T01:17:46.323Z,21.52
2022-07-25T01:20:17.969Z,21.46
2022-07-25T01:22:45.886Z,21.33
2022-07-25T01:25:13.670Z,21.21
2022-07-25T01:27:41.254Z,21.12
2022-07-25T01:30:09.901Z,20.92
2022-07-25T01:32:36.893Z,20.80
2022-07-25T01:35:07.812Z,20.92
2022-07-25T01:37:34.774Z,20.94
2022-07-25T01:40:02.404Z,20.91
2022-07-25T01:42:29.974Z,20.86
2022-07-25T01:44:57.743Z,20.83
2022-07-25T01:47:24.254Z,20.88
2022-07-25T01:49:50.738Z,20.91
2022-07-25T01:52:17.227Z,20.93
2022-07-25T01:54:45.687Z,21.03
2022-07-25T01:57:14.330Z,21.15
2022-07-25T01:59:41.354Z,21.15
2022-07-25T02:02:09.050Z,21.15
2022-07-25T02:04:36.225Z,21.19
2022-07-25T02:07:03.849Z,21.22
2022-07-25T02:09:32.406Z,21.19
2022-07-25T02:11:58.909Z,21.18
2022-07-25T02:14:25.378Z,21.23
2022-07-25T02:16:51.899Z,21.22
2022-07-25T02:19:18.429Z,21.25
2022-07-25T02:21:45.008Z,21.37
2022-07-25T02:24:11.577Z,21.33
2022-07-25T02:26:38.043Z,21.28
2022-07-25T02:29:04.505Z,21.32
2022-07-25T02:31:31.070Z,21.33
2022-07-25T02:33:57.525Z,21.28
2022-07-25T02:36:25.966Z,21.25
2022-07-25T02:38:54.995Z,21.22
2022-07-25T02:41:21.537Z,21.22
2022-07-25T02:43:50.435Z,21.26
2022-07-25T02:46:19.043Z,21.24
2022-07-25T02:48:45.613Z,21.28
2022-07-25T02:51:14.175Z,21.20
2022-07-25T02:53:56.560Z,21.24
2022-07-25T02:56:23.984Z,21.12
2022-07-25T02:58:51.720Z,21.14
2022-07-25T03:01:18.339Z,21.13
2022-07-25T03:03:45.192Z,21.03
2022-07-25T03:06:11.781Z,20.95
2022-07-25T03:08:39.603Z,21.08
2022-07-25T03:11:06.220Z,21.05
2022-07-25T03:13:32.725Z,21.06
2022-07-25T03:15:59.155Z,21.07
2022-07-25T03:18:25.566Z,21.03
2022-07-25T03:20:52.018Z,20.85
2022-07-25T03:23:18.501Z,20.91
2022-07-25T03:25:45.013Z,20.94
2022-07-25T03:28:11.493Z,20.85
2022-07-25T03:30:37.947Z,20.90
2022-07-25T03:33:04.441Z,20.89
2022-07-25T03:35:30.935Z,20.88
2022-07-25T03:37:57.408Z,20.89
2022-07-25T03:40:23.837Z,20.92
2022-07-25T03:42:50.320Z,20.93
2022-07-25T03:45:16.762Z,20.86
2022-07-25T03:47:43.264Z,20.93
2022-07-25T03:50:10.350Z,20.90
2022-07-25T03:52:36.772Z,20.89
2022-07-25T03:55:03.497Z,20.89
2022-07-25T03:57:29.986Z,20.91
2022-07-25T03:59:56.388Z,20.89
2022-07-25T04:02:22.974Z,20.92
2022-07-25T04:04:49.518Z,20.96
2022-07-25T04:07:16.011Z,21.04
2022-07-25T04:09:42.498Z,21.07
2022-07-25T04:12:09.090Z,21.00
2022-07-25T04:14:35.673Z,21.00
2022-07-25T04:17:02.182Z,20.96
2022-07-25T04:19:28.862Z,20.93
2022-07-25T04:21:55.675Z,20.93
2022-07-25T04:24:22.094Z,21.01
2022-07-25T04:26:48.574Z,20.99
2022-07-25T04:29:15.895Z,21.11
2022-07-25T04:31:42.442Z,21.17
2022-07-25T04:34:09.275Z,21.25
2022-07-25T04:36:35.844Z,21.30
2022-07-25T04:39:02.315Z,21.40
2022-07-25T04:41:28.857Z,21.40
2022-07-25T04:43:55.340Z,21.45
2022-07-25T04:46:22.361Z,21.54
2022-07-25T04:48:49.402Z,21.52
2022-07-25T04:51:19.140Z,21.60
2022-07-25T04:53:45.791Z,21.57
2022-07-25T04:56:12.218Z,21.65
2022-07-25T04:58:38.676Z,21.67
2022-07-25T05:01:05.558Z,21.69
2022-07-25T05:03:32.037Z,21.71
2022-07-25T05:05:58.504Z,21.65
2022-07-25T05:08:24.970Z,21.70
2022-07-25T05:10:51.387Z,21.73
2022-07-25T05:13:20.410Z,21.70
2022-07-25T05:15:46.923Z,21.74
2022-07-25T05:18:13.357Z,21.83
2022-07-25T05:20:39.863Z,21.94
2022-07-25T05:23:06.313Z,22.03
2022-07-25T05:25:32.753Z,22.08
2022-07-25T05:27:59.308Z,22.12
2022-07-25T05:30:26.076Z,22.28
2022-07-25T05:32:56.428Z,22.49
2022-07-25T05:35:22.932Z,22.58
2022-07-25T05:37:49.597Z,22.52
2022-07-25T05:40:16.083Z,22.63
2022-07-25T05:42:42.544Z,22.70
2022-07-25T05:45:09.312Z,22.80
2022-07-25T05:47:35.836Z,22.87
2022-07-25T05:50:02.864Z,23.16
2022-07-25T05:52:29.365Z,23.34
2022-07-25T05:54:55.843Z,23.76
2022-07-25T05:57:22.463Z,24.27
2022-07-25T05:59:48.868Z,24.39
2022-07-25T06:02:15.516Z,24.37
2022-07-25T06:04:42.006Z,24.32
2022-07-25T06:07:08.497Z,24.02
2022-07-25T06:09:37.366Z,24.17
2022-07-25T06:12:04.168Z,24.38
2022-07-25T06:14:30.757Z,24.50
2022-07-25T06:16:57.372Z,24.33
2022-07-25T06:19:24.442Z,24.08
2022-07-25T06:21:50.935Z,24.12
2022-07-25T06:24:17.376Z,24.45
2022-07-25T06:26:43.907Z,26.44
2022-07-25T06:29:10.385Z,28.73
2022-07-25T06:31:36.855Z,30.65
2022-07-25T06:34:03.738Z,31.96
2022-07-25T06:36:32.319Z,31.65
2022-07-25T06:38:59.655Z,30.20
2022-07-25T06:41:26.221Z,29.85
2022-07-25T06:43:52.733Z,29.31
2022-07-25T06:46:19.234Z,28.86
2022-07-25T06:48:45.831Z,29.31
2022-07-25T06:51:12.492Z,29.35
2022-07-25T06:53:38.934Z,29.20
2022-07-25T06:56:07.099Z,29.80
2022-07-25T06:58:33.515Z,29.86
2022-07-25T07:01:00.075Z,30.55
2022-07-25T07:03:26.868Z,29.18
2022-07-25T07:05:53.382Z,27.85
2022-07-25T07:08:19.846Z,26.82
2022-07-25T07:10:46.379Z,25.91
2022-07-25T07:13:14.433Z,25.68
2022-07-25T07:15:45.533Z,25.18
2022-07-25T07:18:12.006Z,25.13
2022-07-25T07:20:38.429Z,25.12
2022-07-25T07:23:04.833Z,26.24
2022-07-25T07:25:32.381Z,27.53
2022-07-25T07:27:59.003Z,28.67
2022-07-25T07:30:43.021Z,27.25
2022-07-25T07:33:12.007Z,26.50
2022-07-25T07:35:38.488Z,25.16
2022-07-25T07:38:04.989Z,24.87
2022-07-25T07:40:31.432Z,24.52
2022-07-25T07:42:57.951Z,24.00
2022-07-25T07:45:24.995Z,23.86
2022-07-25T07:47:53.487Z,23.81
2022-07-25T07:50:22.562Z,23.52
2022-07-25T07:52:50.297Z,23.35
2022-07-25T07:55:17.414Z,23.20
2022-07-25T07:57:43.888Z,23.06
2022-07-25T08:00:16.451Z,23.07
2022-07-25T08:02:45.539Z,22.86
2022-07-25T08:05:12.008Z,22.96
2022-07-25T08:07:38.450Z,22.82
2022-07-25T08:10:05.511Z,22.94
2022-07-25T08:12:31.917Z,22.74
2022-07-25T08:14:58.448Z,23.03
2022-07-25T08:17:28.462Z,23.17
2022-07-25T08:19:55.185Z,23.07
2022-07-25T08:22:21.589Z,23.59
2022-07-25T08:24:48.062Z,24.02
2022-07-25T08:27:14.489Z,24.66
2022-07-25T08:29:41.034Z,25.20
2022-07-25T08:32:07.549Z,25.60
2022-07-25T08:34:33.950Z,26.23
2022-07-25T08:37:00.356Z,26.78
2022-07-25T08:39:26.992Z,26.79
2022-07-25T08:41:53.822Z,26.05
2022-07-25T08:44:20.860Z,25.87
2022-07-25T08:46:48.095Z,25.63
2022-07-25T08:49:14.759Z,24.92
2022-07-25T08:51:41.510Z,24.91
2022-07-25T08:54:09.152Z,25.12
2022-07-25T08:56:35.928Z,24.80
2022-07-25T08:59:02.490Z,24.62
2022-07-25T09:01:34.466Z,23.98
2022-07-25T09:04:03.386Z,24.30
2022-07-25T09:06:32.290Z,24.03
2022-07-25T09:09:00.135Z,23.69
2022-07-25T09:11:31.005Z,23.22
2022-07-25T09:13:59.070Z,22.97
2022-07-25T09:16:30.286Z,23.11
2022-07-25T09:19:12.253Z,23.01
2022-07-25T09:21:40.244Z,22.84
2022-07-25T09:24:17.911Z,23.02
2022-07-25T09:26:50.334Z,23.08
2022-07-25T09:29:21.840Z,23.38
2022-07-25T09:31:48.871Z,23.31
2022-07-25T09:34:39.238Z,23.17
2022-07-25T09:37:07.962Z,23.41
2022-07-25T09:39:45.305Z,23.57
2022-07-25T09:42:19.118Z,23.19
2022-07-25T09:44:58.281Z,22.98
2022-07-25T09:47:24.809Z,22.63
2022-07-25T09:49:51.741Z,22.87
2022-07-25T09:52:18.787Z,25.57
2022-07-25T09:54:45.511Z,26.18
2022-07-25T09:57:11.963Z,27.05
2022-07-25T09:59:38.457Z,26.16
2022-07-25T10:02:16.332Z,25.86
2022-07-25T10:05:04.751Z,27.27
2022-07-25T10:07:36.209Z,29.23
2022-07-25T10:10:03.276Z,30.74
2022-07-25T10:12:29.776Z,29.32
2022-07-25T10:15:05.718Z,27.86
2022-07-25T10:17:32.469Z,27.32
2022-07-25T10:19:59.163Z,29.13
2022-07-25T10:22:55.920Z,27.55
2022-07-25T10:25:23.650Z,25.43
2022-07-25T10:27:53.549Z,25.47
2022-07-25T10:30:26.121Z,24.93
2022-07-25T10:33:01.032Z,25.00
2022-07-25T10:35:28.310Z,24.76
2022-07-25T10:37:57.186Z,24.13
2022-07-25T10:40:28.112Z,23.72
2022-07-25T10:43:08.224Z,23.38
2022-07-25T10:45:39.126Z,23.34
2022-07-25T10:48:24.551Z,23.11
2022-07-25T10:51:12.891Z,23.03
2022-07-25T10:53:42.128Z,23.51
2022-07-25T10:56:16.959Z,23.83
2022-07-25T10:58:55.345Z,23.79
2022-07-25T11:01:23.166Z,23.82
2022-07-25T11:03:53.912Z,23.59
2022-07-25T11:06:35.033Z,24.24
2022-07-25T11:09:17.997Z,24.93
2022-07-25T11:11:47.216Z,24.81
2022-07-25T11:14:31.877Z,24.56
2022-07-25T11:17:10.739Z,24.18
2022-07-25T11:19:37.212Z,24.91
2022-07-25T11:22:03.708Z,25.33
2022-07-25T11:24:37.207Z,25.79
2022-07-25T11:27:08.367Z,25.10
2022-07-25T11:29:39.214Z,24.88
2022-07-25T11:32:11.057Z,24.87
2022-07-25T11:34:41.111Z,24.80
2022-07-25T11:37:10.588Z,27.04
2022-07-25T11:39:39.883Z,26.58
2022-07-25T11:42:06.481Z,25.27
2022-07-25T11:44:58.981Z,25.36
2022-07-25T11:47:32.367Z,24.40
2022-07-25T11:50:04.278Z,24.15
2022-07-25T11:52:30.620Z,24.36
2022-07-25T11:54:59.270Z,24.49
2022-07-25T11:57:28.079Z,24.60
2022-07-25T11:59:55.548Z,24.73
2022-07-25T12:02:33.493Z,24.35
2022-07-25T12:05:07.227Z,24.61
2022-07-25T12:07:42.209Z,24.16
2022-07-25T12:10:11.977Z,24.44
2022-07-25T12:12:57.025Z,24.10
2022-07-25T12:15:32.842Z,23.70
2022-07-25T12:17:59.744Z,23.25
2022-07-25T12:20:28.475Z,23.21
2022-07-25T12:22:57.736Z,23.27
2022-07-25T12:25:30.497Z,23.70
2022-07-25T12:27:57.810Z,24.30
2022-07-25T12:30:24.946Z,24.38
2022-07-25T12:32:51.494Z,25.24
2022-07-25T12:35:17.989Z,25.65
2022-07-25T12:37:45.793Z,25.40
2022-07-25T12:40:13.797Z,24.53
2022-07-25T12:42:40.396Z,24.68
2022-07-25T12:45:07.443Z,24.59
2022-07-25T12:47:34.113Z,24.60
2022-07-25T12:50:00.870Z,24.05
2022-07-25T12:52:27.456Z,23.99
2022-07-25T12:54:54.128Z,24.08
2022-07-25T12:57:20.619Z,23.97
2022-07-25T12:59:47.488Z,23.79
2022-07-25T13:02:14.050Z,24.24
2022-07-25T13:04:40.630Z,24.87
2022-07-25T13:07:07.099Z,25.18
2022-07-25T13:09:33.736Z,25.33
2022-07-25T13:12:00.613Z,24.66
2022-07-25T13:14:27.038Z,24.17
2022-07-25T13:16:53.623Z,24.30
2022-07-25T13:19:20.234Z,24.41
2022-07-25T13:21:46.638Z,24.84
2022-07-25T13:24:13.046Z,24.69
2022-07-25T13:26:39.986Z,24.90
2022-07-25T13:29:06.724Z,24.65
2022-07-25T13:31:33.388Z,24.33
2022-07-25T13:34:00.870Z,24.17
2022-07-25T13:36:27.589Z,24.45
2022-07-25T13:38:54.147Z,23.78
2022-07-25T13:41:20.653Z,23.87
2022-07-25T13:43:47.406Z,24.04
2022-07-25T13:46:14.083Z,24.36
2022-07-25T13:48:40.714Z,24.25
2022-07-25T13:51:07.410Z,24.88
2022-07-25T13:53:33.851Z,24.51
2022-07-25T13:56:00.679Z,23.94
2022-07-25T13:58:27.831Z,23.94
2022-07-25T14:00:54.739Z,24.49
2022-07-25T14:03:21.345Z,24.54
2022-07-25T14:05:47.922Z,24.67
2022-07-25T14:08:14.978Z,24.41
2022-07-25T14:10:41.477Z,24.47
2022-07-25T14:13:08.000Z,24.44
2022-07-25T14:15:34.509Z,24.71
2022-07-25T14:18:01.018Z,24.65
2022-07-25T14:20:27.465Z,24.96
2022-07-25T14:22:53.936Z,24.95
2022-07-25T14:25:20.487Z,24.40
2022-07-25T14:27:47.013Z,24.40
2022-07-25T14:30:13.859Z,23.76
2022-07-25T14:32:40.494Z,23.59
2022-07-25T14:35:07.455Z,23.57
2022-07-25T14:37:34.974Z,23.84
2022-07-25T14:40:02.536Z,24.25
2022-07-25T14:42:29.604Z,24.66
2022-07-25T14:44:56.062Z,24.19
2022-07-25T14:47:22.641Z,23.54
2022-07-25T14:49:49.692Z,23.38
2022-07-25T14:52:16.157Z,23.33
2022-07-25T14:54:42.636Z,23.40
2022-07-25T14:57:10.109Z,23.32
2022-07-25T14:59:36.711Z,23.12
2022-07-25T15:02:03.351Z,22.97
2022-07-25T15:04:29.829Z,23.34
2022-07-25T15:06:56.414Z,23.82
2022-07-25T15:09:23.114Z,23.53
2022-07-25T15:11:49.573Z,23.21
2022-07-25T15:14:16.130Z,22.98
2022-07-25T15:16:43.228Z,23.16
2022-07-25T15:19:17.738Z,23.03
2022-07-25T15:21:45.301Z,22.68
2022-07-25T15:24:11.770Z,22.61
2022-07-25T15:26:38.278Z,22.74
2022-07-25T15:29:09.146Z,22.89
2022-07-25T15:31:38.372Z,22.88
2022-07-25T15:34:04.929Z,22.90
2022-07-25T15:36:31.396Z,22.55
2022-07-25T15:38:57.862Z,22.74
2022-07-25T15:41:24.383Z,22.58
2022-07-25T15:43:50.972Z,22.73
2022-07-25T15:46:17.499Z,22.96
2022-07-25T15:48:44.125Z,22.94
2022-07-25T15:51:10.745Z,22.86
2022-07-25T15:53:37.390Z,22.85
2022-07-25T15:56:04.054Z,22.69
2022-07-25T15:58:31.884Z,22.74
2022-07-25T16:00:58.397Z,22.65
2022-07-25T16:03:24.962Z,22.56
2022-07-25T16:05:51.445Z,22.52
2022-07-25T16:08:17.904Z,22.37
2022-07-25T16:10:44.324Z,22.23
2022-07-25T16:13:10.748Z,22.37
2022-07-25T16:15:37.219Z,22.34
2022-07-25T16:18:03.777Z,22.35
2022-07-25T16:20:31.485Z,22.50
2022-07-25T16:22:58.327Z,22.32
2022-07-25T16:25:26.727Z,22.31
2022-07-25T16:27:54.033Z,22.31
2022-07-25T16:30:20.933Z,22.18
2022-07-25T16:32:47.420Z,22.13
2022-07-25T16:35:14.198Z,22.12
2022-07-25T16:37:41.363Z,22.26
2022-07-25T16:40:08.959Z,22.27
2022-07-25T16:42:36.135Z,22.32
2022-07-25T16:45:02.874Z,22.64
2022-07-25T16:47:29.360Z,22.48
2022-07-25T16:49:55.856Z,22.38
2022-07-25T16:52:22.552Z,22.33
2022-07-25T16:54:49.315Z,22.18
2022-07-25T16:57:15.975Z,22.33
2022-07-25T16:59:42.909Z,22.00
2022-07-25T17:02:09.540Z,21.95
2022-07-25T17:04:36.056Z,21.99
2022-07-25T17:07:02.779Z,21.99
2022-07-25T17:09:29.252Z,21.70
2022-07-25T17:11:55.703Z,21.65
2022-07-25T17:14:26.346Z,21.76
2022-07-25T17:16:56.071Z,21.87
2022-07-25T17:19:22.521Z,22.01
2022-07-25T17:21:48.968Z,21.89
2022-07-25T17:24:15.640Z,21.94
2022-07-25T17:26:42.083Z,21.84
2022-07-25T17:29:09.108Z,21.88
2022-07-25T17:31:35.986Z,21.86
2022-07-25T17:34:02.465Z,21.69
2022-07-25T17:36:29.045Z,21.70
2022-07-25T17:38:55.554Z,21.63
2022-07-25T17:41:22.030Z,21.57
2022-07-25T17:43:48.449Z,21.61
2022-07-25T17:46:15.828Z,21.70
2022-07-25T17:48:42.407Z,21.74
2022-07-25T17:51:08.953Z,21.65
2022-07-25T17:53:35.623Z,21.63
2022-07-25T17:56:02.907Z,21.64
2022-07-25T17:58:29.344Z,21.73
2022-07-25T18:01:00.822Z,21.74
2022-07-25T18:03:27.842Z,21.79
2022-07-25T18:05:55.505Z,21.75
2022-07-25T18:08:22.045Z,21.85
2022-07-25T18:10:49.229Z,21.76
2022-07-25T18:13:16.682Z,21.54
2022-07-25T18:15:59.041Z,21.40
2022-07-25T18:18:27.878Z,21.36
2022-07-25T18:20:54.339Z,21.26
2022-07-25T18:23:20.874Z,21.10
2022-07-25T18:25:47.408Z,21.16
2022-07-25T18:28:13.831Z,21.13
2022-07-25T18:30:40.503Z,21.09
2022-07-25T18:33:07.003Z,21.02
2022-07-25T18:35:33.460Z,20.98
2022-07-25T18:38:01.450Z,21.09
2022-07-25T18:40:28.250Z,20.92
2022-07-25T18:42:54.789Z,20.86
2022-07-25T18:45:22.331Z,20.79
2022-07-25T18:47:50.559Z,20.84
2022-07-25T18:50:17.006Z,20.85
2022-07-25T18:52:43.415Z,20.82
2022-07-25T18:55:10.103Z,20.87
2022-07-25T18:57:36.528Z,20.89
2022-07-25T19:00:07.512Z,20.89
2022-07-25T19:02:33.990Z,20.84
2022-07-25T19:05:00.532Z,20.86
2022-07-25T19:07:27.000Z,20.91
2022-07-25T19:09:53.411Z,20.86
2022-07-25T19:12:19.850Z,20.75
2022-07-25T19:14:46.269Z,20.74
2022-07-25T19:17:12.710Z,20.73
2022-07-25T19:19:39.170Z,20.72
2022-07-25T19:22:05.625Z,20.64
2022-07-25T19:24:32.018Z,20.60
2022-07-25T19:26:58.581Z,20.62
2022-07-25T19:29:25.096Z,20.58
2022-07-25T19:31:51.503Z,20.57
2022-07-25T19:34:18.028Z,20.48
2022-07-25T19:36:44.448Z,20.43
2022-07-25T19:39:11.039Z,20.43
2022-07-25T19:41:37.515Z,20.43
2022-07-25T19:44:04.568Z,20.28
2022-07-25T19:46:31.535Z,20.23
2022-07-25T19:48:58.374Z,20.23
2022-07-25T19:51:25.023Z,20.24
2022-07-25T19:53:51.729Z,20.21
2022-07-25T19:56:18.173Z,20.19
2022-07-25T19:58:44.634Z,20.18
2022-07-25T20:01:12.405Z,20.24
2022-07-25T20:03:39.479Z,20.20
2022-07-25T20:06:08.292Z,20.14
2022-07-25T20:08:36.448Z,20.14
2022-07-25T20:11:02.933Z,20.09
2022-07-25T20:13:29.440Z,20.07
2022-07-25T20:15:55.875Z,20.15
2022-07-25T20:18:22.293Z,20.10
2022-07-25T20:20:48.751Z,20.02
2022-07-25T20:23:15.469Z,19.98
2022-07-25T20:25:41.975Z,19.95
2022-07-25T20:28:08.468Z,19.89
2022-07-25T20:30:35.380Z,19.87
2022-07-25T20:33:09.199Z,19.84
2022-07-25T20:35:37.291Z,19.77
2022-07-25T20:38:09.158Z,19.71
2022-07-25T20:40:39.249Z,19.65
2022-07-25T20:43:08.470Z,19.61
2022-07-25T20:45:34.977Z,19.58
2022-07-25T20:48:01.457Z,19.62
2022-07-25T20:50:27.897Z,19.64
2022-07-25T20:52:54.332Z,19.64
2022-07-25T20:55:20.951Z,19.55
2022-07-25T20:57:50.500Z,19.49
2022-07-25T21:00:17.556Z,19.45
2022-07-25T21:02:44.106Z,19.44
2022-07-25T21:05:10.618Z,19.45
2022-07-25T21:07:37.072Z,19.46
2022-07-25T21:10:04.031Z,19.46
2022-07-25T21:12:32.749Z,19.52
2022-07-25T21:14:59.878Z,19.53
2022-07-25T21:17:26.423Z,19.52
2022-07-25T21:19:53.048Z,19.51
2022-07-25T21:22:19.526Z,19.56
2022-07-25T21:24:45.942Z,19.63
2022-07-25T21:27:12.330Z,19.71
2022-07-25T21:29:38.815Z,19.77
2022-07-25T21:32:05.908Z,19.81
2022-07-25T21:34:32.512Z,19.85
2022-07-25T21:36:58.960Z,19.85
2022-07-25T21:39:25.803Z,19.82
2022-07-25T21:41:54.940Z,19.78
2022-07-25T21:44:22.123Z,19.81
2022-07-25T21:46:50.100Z,19.74
2022-07-25T21:49:16.597Z,19.73
2022-07-25T21:51:51.965Z,19.76
2022-07-25T21:54:20.203Z,19.69
2022-07-25T21:56:46.673Z,19.57
2022-07-25T21:59:13.113Z,19.41
2022-07-25T22:01:39.968Z,19.39
2022-07-25T22:04:06.552Z,19.28
2022-07-25T22:06:34.137Z,19.23
2022-07-25T22:09:00.592Z,19.16
2022-07-25T22:11:42.508Z,19.21
2022-07-25T22:14:12.541Z,19.26
2022-07-25T22:16:39.145Z,19.31
2022-07-25T22:19:05.869Z,19.34
2022-07-25T22:21:32.618Z,19.39
2022-07-25T22:23:59.141Z,19.32
2022-07-25T22:26:25.692Z,19.32
2022-07-25T22:28:52.112Z,19.22
2022-07-25T22:31:18.968Z,19.12
2022-07-25T22:33:45.599Z,19.01
2022-07-25T22:36:12.059Z,18.95
2022-07-25T22:38:38.474Z,18.92
2022-07-25T22:41:05.097Z,18.96
2022-07-25T22:43:56.716Z,18.98
2022-07-25T22:46:18.022Z,19.03
2022-07-25T22:48:44.599Z,18.95
2022-07-25T22:51:11.149Z,18.96
2022-07-25T22:53:37.677Z,19.05
2022-07-25T22:56:04.451Z,19.11
2022-07-25T22:58:30.923Z,19.16
2022-07-25T23:00:57.357Z,19.26
2022-07-25T23:03:23.860Z,19.29
2022-07-25T23:05:50.317Z,19.42
2022-07-25T23:08:20.548Z,19.41
2022-07-25T23:10:47.206Z,19.33
2022-07-25T23:13:13.631Z,19.32
2022-07-25T23:15:49.491Z,19.32
2022-07-25T23:18:17.122Z,19.30
2022-07-25T23:20:43.590Z,19.30
2022-07-25T23:23:10.042Z,19.39
2022-07-25T23:25:36.475Z,19.41
2022-07-25T23:28:02.993Z,19.43
2022-07-25T23:30:29.458Z,19.44
2022-07-25T23:32:55.900Z,19.34
2022-07-25T23:35:22.631Z,19.43
2022-07-25T23:37:49.061Z,19.47
2022-07-25T23:40:15.496Z,19.49
2022-07-25T23:42:41.972Z,19.56
2022-07-25T23:45:09.096Z,19.47
2022-07-25T23:47:39.204Z,19.46
2022-07-25T23:50:06.785Z,19.47
2022-07-25T23:52:33.193Z,19.58
2022-07-25T23:54:59.577Z,19.49
2022-07-25T23:57:26.128Z,19.49
2022-07-25T23:59:52.526Z,19.50
